Time;durP1;ratioP1;P1;durP2;ratioP2;P2;SDS_P1;SDS_P2;PMS_P1;PMS_P2;Temp;Humidity;BMP_temperature;BMP_pressure;BME280_temperature;BME280_humidity;BME280_pressure;Samples;Min_cycle;Max_cycle;Signal;HPM_P1;HPM_P2
2022/08/29 00:01:28;;;;;;;;;;;23.40;99.90;;;;;;4589898;19;19995;-26
2022/08/29 00:03:00;;;;;;;;;;;23.30;99.90;;;;;;4590888;19;19925;-31
2022/08/29 00:04:33;;;;;;;;;;;23.40;99.90;;;;;;4589857;19;19919;-30
2022/08/29 00:06:05;;;;;;;;;;;23.40;99.90;;;;;;4590802;19;19943;-27
2022/08/29 00:07:36;;;;;;;;;;;23.40;99.90;;;;;;4589756;19;19915;-26
2022/08/29 00:09:07;;;;;;;;;;;23.30;99.90;;;;;;4590561;19;20000;-29
2022/08/29 00:10:38;;;;;;;;;;;23.30;99.90;;;;;;4590874;19;19927;-26
2022/08/29 00:12:09;;;;;;;;;;;23.30;99.90;;;;;;4590571;19;19918;-26
2022/08/29 00:13:40;;;;;;;;;;;23.20;99.90;;;;;;4590734;19;20344;-26
2022/08/29 00:15:12;;;;;;;;;;;23.10;99.90;;;;;;4589672;19;19917;-27
2022/08/29 00:16:43;;;;;;;;;;;23.10;99.90;;;;;;4589834;19;19959;-27
2022/08/29 00:18:14;;;;;;;;;;;23.10;99.90;;;;;;4589659;19;20336;-28
2022/08/29 00:19:45;;;;;;;;;;;23.10;99.90;;;;;;4586471;19;19957;-27
2022/08/29 00:21:16;;;;;;;;;;;23.10;99.90;;;;;;4589173;19;19982;-26
2022/08/29 00:22:48;;;;;;;;;;;23.10;99.90;;;;;;4590318;19;19974;-29
2022/08/29 00:24:19;;;;;;;;;;;23.20;99.90;;;;;;4589288;19;20253;-25
2022/08/29 00:25:50;;;;;;;;;;;23.30;99.90;;;;;;4590389;19;19939;-28
2022/08/29 00:27:21;;;;;;;;;;;23.30;99.90;;;;;;4589761;19;19915;-26
2022/08/29 00:28:53;;;;;;;;;;;23.40;99.90;;;;;;4590166;19;19934;-26
2022/08/29 00:30:24;;;;;;;;;;;23.30;99.90;;;;;;4590591;19;20360;-27
2022/08/29 00:31:55;;;;;;;;;;;23.30;99.90;;;;;;4589115;19;19918;-29
2022/08/29 00:33:26;;;;;;;;;;;23.20;99.90;;;;;;4590119;19;20347;-26
2022/08/29 00:34:57;;;;;;;;;;;23.20;99.90;;;;;;4590280;19;19929;-26
2022/08/29 00:36:28;;;;;;;;;;;23.10;99.90;;;;;;4590273;19;20297;-27
2022/08/29 00:38:00;;;;;;;;;;;23.00;99.90;;;;;;4590649;19;19929;-26
2022/08/29 00:39:31;;;;;;;;;;;23.00;99.90;;;;;;4587169;19;19933;-26
2022/08/29 00:41:03;;;;;;;;;;;23.10;99.90;;;;;;4587105;19;20329;-29
2022/08/29 00:42:34;;;;;;;;;;;23.10;99.90;;;;;;4586522;19;19918;-28
2022/08/29 00:44:05;;;;;;;;;;;23.10;99.90;;;;;;4587724;19;19923;-26
2022/08/29 00:45:37;;;;;;;;;;;23.00;99.90;;;;;;4589841;19;19931;-26
2022/08/29 00:47:09;;;;;;;;;;;23.10;99.90;;;;;;4588312;19;20345;-27
2022/08/29 00:48:40;;;;;;;;;;;23.10;99.90;;;;;;4587579;19;19923;-25
2022/08/29 00:50:15;;;;;;;;;;;23.20;99.90;;;;;;4590051;19;19919;-32
2022/08/29 00:51:47;;;;;;;;;;;23.10;99.90;;;;;;4589203;19;20261;-25
2022/08/29 00:53:33;;;;;;;;;;;23.10;99.90;;;;;;4589354;19;19918;-30
2022/08/29 00:55:09;;;;;;;;;;;23.00;99.90;;;;;;4590183;19;19929;-26
2022/08/29 00:56:43;;;;;;;;;;;23.00;99.90;;;;;;4589257;19;19918;-26
2022/08/29 00:58:15;;;;;;;;;;;23.00;99.90;;;;;;4588983;19;19919;-27
2022/08/29 00:59:46;;;;;;;;;;;22.90;99.90;;;;;;4587740;19;20287;-26
2022/08/29 01:01:18;;;;;;;;;;;22.90;99.90;;;;;;4589135;19;19923;-26
2022/08/29 01:02:50;;;;;;;;;;;22.90;99.90;;;;;;4589911;19;20242;-29
2022/08/29 01:04:21;;;;;;;;;;;22.90;99.90;;;;;;4589694;19;19930;-26
2022/08/29 01:05:52;;;;;;;;;;;22.80;99.90;;;;;;4588961;19;19942;-28
2022/08/29 01:07:23;;;;;;;;;;;22.80;99.90;;;;;;4588738;19;19914;-30
2022/08/29 01:08:54;;;;;;;;;;;22.90;99.90;;;;;;4589000;19;19970;-26
2022/08/29 01:12:32;;;;;;;;;;;22.80;99.90;;;;;;4587748;19;19990;-25
2022/08/29 01:14:03;;;;;;;;;;;22.90;99.90;;;;;;4587700;19;19915;-26
2022/08/29 01:15:35;;;;;;;;;;;23.00;99.90;;;;;;4587650;19;19946;-25
2022/08/29 01:17:07;;;;;;;;;;;23.00;99.90;;;;;;4587893;19;19923;-27
2022/08/29 01:18:38;;;;;;;;;;;23.00;99.90;;;;;;4587549;19;19922;-26
2022/08/29 01:20:18;;;;;;;;;;;23.00;99.90;;;;;;4585766;19;19918;-30
2022/08/29 01:21:51;;;;;;;;;;;23.00;99.90;;;;;;4587741;19;19911;-26
2022/08/29 01:23:39;;;;;;;;;;;23.00;99.90;;;;;;4587172;19;19918;-30
2022/08/29 01:25:12;;;;;;;;;;;22.90;99.90;;;;;;4587426;19;19937;-26
2022/08/29 01:26:44;;;;;;;;;;;22.80;99.90;;;;;;4587166;19;19923;-27
2022/08/29 01:28:18;;;;;;;;;;;22.80;99.90;;;;;;4587517;19;19915;-26
2022/08/29 01:29:49;;;;;;;;;;;22.80;99.90;;;;;;4587477;19;19907;-28
2022/08/29 01:31:21;;;;;;;;;;;22.80;99.90;;;;;;4586944;19;19935;-26
2022/08/29 01:32:52;;;;;;;;;;;22.80;99.90;;;;;;4587072;19;19926;-28
2022/08/29 01:34:23;;;;;;;;;;;22.80;99.90;;;;;;4587284;19;19921;-26
2022/08/29 01:35:54;;;;;;;;;;;22.80;99.90;;;;;;4587257;19;19939;-30
2022/08/29 01:37:27;;;;;;;;;;;22.70;99.90;;;;;;4586807;19;19930;-27
2022/08/29 01:38:58;;;;;;;;;;;22.70;99.90;;;;;;4586777;19;19925;-28
2022/08/29 01:40:29;;;;;;;;;;;22.70;99.90;;;;;;4587447;19;20279;-26
2022/08/29 01:42:02;;;;;;;;;;;22.70;99.90;;;;;;4587229;19;19923;-28
2022/08/29 01:43:38;;;;;;;;;;;22.80;99.90;;;;;;4587262;19;19923;-29
2022/08/29 01:45:09;;;;;;;;;;;22.80;99.90;;;;;;4587066;19;19926;-29
2022/08/29 01:46:40;;;;;;;;;;;22.80;99.90;;;;;;4587521;19;19986;-26
2022/08/29 01:48:11;;;;;;;;;;;22.80;99.90;;;;;;4587364;19;20347;-30
2022/08/29 01:49:43;;;;;;;;;;;22.70;99.90;;;;;;4588945;19;19923;-27
2022/08/29 01:51:14;;;;;;;;;;;22.80;99.90;;;;;;4589387;19;19914;-28
2022/08/29 01:52:45;;;;;;;;;;;22.80;99.90;;;;;;4586335;19;19986;-30
2022/08/29 01:54:16;;;;;;;;;;;22.70;99.90;;;;;;4586881;19;19930;-26
2022/08/29 01:55:47;;;;;;;;;;;22.80;99.90;;;;;;4591910;19;19923;-26
2022/08/29 01:57:18;;;;;;;;;;;22.80;99.90;;;;;;4592073;19;19926;-26
2022/08/29 01:58:50;;;;;;;;;;;22.70;99.90;;;;;;4593501;19;19917;-31
2022/08/29 02:00:21;;;;;;;;;;;22.80;99.90;;;;;;4592665;19;19911;-32
2022/08/29 02:01:53;;;;;;;;;;;22.70;99.90;;;;;;4593187;19;19938;-26
2022/08/29 02:03:24;;;;;;;;;;;22.70;99.90;;;;;;4592062;19;19918;-27
2022/08/29 02:07:19;;;;;;;;;;;22.70;99.90;;;;;;4593029;19;19915;-26
2022/08/29 02:08:51;;;;;;;;;;;22.70;99.90;;;;;;4591398;19;19926;-31
2022/08/29 02:10:22;;;;;;;;;;;22.70;99.90;;;;;;4593402;19;19937;-30
2022/08/29 02:11:53;;;;;;;;;;;22.70;99.90;;;;;;4592482;19;19915;-26
2022/08/29 02:13:24;;;;;;;;;;;22.70;99.90;;;;;;4591373;19;19990;-28
2022/08/29 02:14:56;;;;;;;;;;;22.70;99.90;;;;;;4592309;19;19947;-26
2022/08/29 02:16:27;;;;;;;;;;;22.70;99.90;;;;;;4592357;19;20000;-28
2022/08/29 02:17:58;;;;;;;;;;;22.70;99.90;;;;;;4592666;19;19925;-27
2022/08/29 02:19:30;;;;;;;;;;;22.70;99.90;;;;;;4590720;19;19923;-27
2022/08/29 02:21:01;;;;;;;;;;;22.70;99.90;;;;;;4590623;19;19947;-25
2022/08/29 02:22:32;;;;;;;;;;;22.70;99.90;;;;;;4592573;19;19918;-26
2022/08/29 02:24:04;;;;;;;;;;;22.70;99.90;;;;;;4593440;19;19923;-27
2022/08/29 02:25:41;;;;;;;;;;;22.70;99.90;;;;;;4593058;19;19940;-30
2022/08/29 02:27:12;;;;;;;;;;;22.70;99.90;;;;;;4593203;19;19950;-26
2022/08/29 02:28:43;;;;;;;;;;;22.70;99.90;;;;;;4593231;19;19931;-28
2022/08/29 02:30:14;;;;;;;;;;;22.70;99.90;;;;;;4591747;19;19923;-27
2022/08/29 02:31:45;;;;;;;;;;;22.80;99.90;;;;;;4592339;19;19914;-30
2022/08/29 02:33:16;;;;;;;;;;;22.80;99.90;;;;;;4592680;19;19919;-26
2022/08/29 02:34:47;;;;;;;;;;;22.80;99.90;;;;;;4592624;19;20280;-26
2022/08/29 02:36:18;;;;;;;;;;;22.90;99.90;;;;;;4591904;19;20352;-28
2022/08/29 02:37:49;;;;;;;;;;;22.90;99.90;;;;;;4592513;19;19923;-30
2022/08/29 02:39:20;;;;;;;;;;;23.00;99.90;;;;;;4591923;19;19919;-25
2022/08/29 02:40:51;;;;;;;;;;;23.00;99.90;;;;;;4589376;19;19922;-26
2022/08/29 02:42:22;;;;;;;;;;;23.00;99.90;;;;;;4589174;19;20013;-26
2022/08/29 02:43:54;;;;;;;;;;;23.00;99.90;;;;;;4592620;19;19910;-28
2022/08/29 02:45:25;;;;;;;;;;;23.10;99.90;;;;;;4592594;19;19930;-26
2022/08/29 02:46:56;;;;;;;;;;;23.00;99.90;;;;;;4592385;19;19919;-26
2022/08/29 02:48:27;;;;;;;;;;;23.10;99.90;;;;;;4592300;19;19918;-29
2022/08/29 02:49:58;;;;;;;;;;;23.00;99.90;;;;;;4592570;19;19918;-26
2022/08/29 02:51:29;;;;;;;;;;;23.00;99.90;;;;;;4591371;19;19922;-29
2022/08/29 02:53:01;;;;;;;;;;;22.90;99.90;;;;;;4591409;19;20384;-26
2022/08/29 02:54:32;;;;;;;;;;;22.80;99.90;;;;;;4592186;19;19922;-26
2022/08/29 02:56:03;;;;;;;;;;;22.80;99.90;;;;;;4591253;19;19914;-27
2022/08/29 02:57:34;;;;;;;;;;;22.80;99.90;;;;;;4591590;19;19990;-28
2022/08/29 02:59:07;;;;;;;;;;;22.80;99.90;;;;;;4591429;19;20351;-26
2022/08/29 03:00:38;;;;;;;;;;;22.80;99.90;;;;;;4592324;19;19921;-30
2022/08/29 03:02:09;;;;;;;;;;;22.80;99.90;;;;;;4589735;19;19922;-30
2022/08/29 03:03:40;;;;;;;;;;;22.80;99.90;;;;;;4590153;19;19931;-26
2022/08/29 03:05:12;;;;;;;;;;;22.80;99.90;;;;;;4590930;19;19927;-26
2022/08/29 03:06:43;;;;;;;;;;;22.80;99.90;;;;;;4589507;19;19991;-26
2022/08/29 03:08:14;;;;;;;;;;;22.80;99.90;;;;;;4592280;19;20248;-26
2022/08/29 03:09:45;;;;;;;;;;;22.80;99.90;;;;;;4591424;19;19918;-26
2022/08/29 03:11:16;;;;;;;;;;;22.80;99.90;;;;;;4591821;19;19918;-30
2022/08/29 03:12:47;;;;;;;;;;;22.80;99.90;;;;;;4592154;19;19915;-29
2022/08/29 03:14:18;;;;;;;;;;;22.80;99.90;;;;;;4592024;19;19927;-26
2022/08/29 03:15:49;;;;;;;;;;;22.70;99.90;;;;;;4592102;19;19927;-26
2022/08/29 03:17:20;;;;;;;;;;;22.70;99.90;;;;;;4592040;19;19938;-26
2022/08/29 03:18:51;;;;;;;;;;;22.70;99.90;;;;;;4591666;19;19918;-27
2022/08/29 03:20:22;;;;;;;;;;;22.70;99.90;;;;;;4591242;19;20005;-28
2022/08/29 03:21:54;;;;;;;;;;;22.70;99.90;;;;;;4591218;19;20269;-25
2022/08/29 03:23:25;;;;;;;;;;;22.60;99.90;;;;;;4591105;19;20376;-31
2022/08/29 03:24:57;;;;;;;;;;;22.60;99.90;;;;;;4591912;19;19922;-27
2022/08/29 03:26:28;;;;;;;;;;;22.60;99.90;;;;;;4592011;19;19914;-29
2022/08/29 03:28:00;;;;;;;;;;;22.60;99.90;;;;;;4590640;19;19932;-26
2022/08/29 03:29:31;;;;;;;;;;;22.70;99.90;;;;;;4591768;19;19922;-30
2022/08/29 03:31:02;;;;;;;;;;;22.80;99.90;;;;;;4591630;19;19942;-29
2022/08/29 03:32:33;;;;;;;;;;;22.70;99.90;;;;;;4592069;19;20318;-27
2022/08/29 03:34:05;;;;;;;;;;;22.70;99.90;;;;;;4591638;19;19927;-26
2022/08/29 03:35:36;;;;;;;;;;;22.70;99.90;;;;;;4590194;19;20306;-27
2022/08/29 03:37:07;;;;;;;;;;;22.70;99.90;;;;;;4591207;19;19919;-26
2022/08/29 03:38:38;;;;;;;;;;;22.70;99.90;;;;;;4591383;19;19914;-27
2022/08/29 03:40:09;;;;;;;;;;;22.70;99.90;;;;;;4590235;19;20260;-26
2022/08/29 03:41:40;;;;;;;;;;;22.60;99.90;;;;;;4590621;19;19915;-29
2022/08/29 03:43:11;;;;;;;;;;;22.60;99.90;;;;;;4589834;19;19922;-26
2022/08/29 03:44:42;;;;;;;;;;;22.60;99.90;;;;;;4589569;19;19927;-28
2022/08/29 03:46:13;;;;;;;;;;;22.60;99.90;;;;;;4588302;19;19939;-26
2022/08/29 03:47:44;;;;;;;;;;;22.70;99.90;;;;;;4590045;19;19918;-29
2022/08/29 03:49:15;;;;;;;;;;;22.60;99.90;;;;;;4590209;19;19918;-26
2022/08/29 03:50:46;;;;;;;;;;;22.60;99.90;;;;;;4590520;19;20245;-26
2022/08/29 03:52:17;;;;;;;;;;;22.60;99.90;;;;;;4590930;19;19929;-27
2022/08/29 03:53:48;;;;;;;;;;;22.70;99.90;;;;;;4590818;19;19974;-28
2022/08/29 03:55:19;;;;;;;;;;;22.70;99.90;;;;;;4591269;19;19921;-26
2022/08/29 03:56:50;;;;;;;;;;;22.80;99.90;;;;;;4590966;19;19915;-28
2022/08/29 03:58:22;;;;;;;;;;;22.80;99.90;;;;;;4590226;19;19918;-26
2022/08/29 03:59:53;;;;;;;;;;;22.70;99.90;;;;;;4590299;19;19926;-28
2022/08/29 04:01:25;;;;;;;;;;;22.70;99.90;;;;;;4591164;19;19936;-30
2022/08/29 04:02:57;;;;;;;;;;;22.60;99.90;;;;;;4589688;19;19925;-26
2022/08/29 04:06:18;;;;;;;;;;;22.60;99.90;;;;;;4591083;19;19947;-30
2022/08/29 04:07:49;;;;;;;;;;;22.50;99.90;;;;;;4589603;19;19927;-29
2022/08/29 04:09:20;;;;;;;;;;;22.50;99.90;;;;;;4590658;19;19918;-28
2022/08/29 04:10:51;;;;;;;;;;;22.60;99.90;;;;;;4590403;19;20337;-26
2022/08/29 04:12:22;;;;;;;;;;;22.50;99.90;;;;;;4589647;19;19922;-26
2022/08/29 04:13:53;;;;;;;;;;;22.50;99.90;;;;;;4589697;19;20317;-29
2022/08/29 04:15:26;;;;;;;;;;;22.50;99.90;;;;;;4590595;19;19922;-28
2022/08/29 04:16:57;;;;;;;;;;;22.60;99.90;;;;;;4590847;19;20325;-27
2022/08/29 04:18:29;;;;;;;;;;;22.60;99.90;;;;;;4589442;19;19919;-27
2022/08/29 04:20:00;;;;;;;;;;;22.50;99.90;;;;;;4589453;19;20369;-26
2022/08/29 04:21:33;;;;;;;;;;;22.50;99.90;;;;;;4590312;19;19928;-28
2022/08/29 04:23:04;;;;;;;;;;;22.40;99.90;;;;;;4590300;19;19926;-26
2022/08/29 04:24:35;;;;;;;;;;;22.40;99.90;;;;;;4591068;19;19932;-26
2022/08/29 04:26:13;;;;;;;;;;;22.50;99.90;;;;;;4589198;19;19915;-27
2022/08/29 04:27:44;;;;;;;;;;;22.50;99.90;;;;;;4590390;19;19929;-27
2022/08/29 04:29:15;;;;;;;;;;;22.40;99.90;;;;;;4590699;19;19944;-28
2022/08/29 04:30:47;;;;;;;;;;;22.30;99.90;;;;;;4590570;19;19942;-27
2022/08/29 04:32:19;;;;;;;;;;;22.30;99.90;;;;;;4589207;19;19906;-26
2022/08/29 04:33:50;;;;;;;;;;;22.40;99.90;;;;;;4589410;19;19914;-26
2022/08/29 04:35:21;;;;;;;;;;;22.40;99.90;;;;;;4590124;19;19951;-26
2022/08/29 04:36:52;;;;;;;;;;;22.50;99.90;;;;;;4589172;19;19919;-30
2022/08/29 04:38:23;;;;;;;;;;;22.40;99.90;;;;;;4589793;19;19948;-27
2022/08/29 04:39:54;;;;;;;;;;;22.30;99.90;;;;;;4589052;19;19925;-26
2022/08/29 04:41:25;;;;;;;;;;;22.30;99.90;;;;;;4590693;19;19923;-26
2022/08/29 04:42:58;;;;;;;;;;;22.20;99.90;;;;;;4590235;19;19918;-26
2022/08/29 04:44:29;;;;;;;;;;;22.20;99.90;;;;;;4589144;19;19915;-27
2022/08/29 04:46:00;;;;;;;;;;;22.20;99.90;;;;;;4589638;19;19914;-24
2022/08/29 04:47:33;;;;;;;;;;;22.20;99.90;;;;;;4589444;19;19917;-26
2022/08/29 04:49:04;;;;;;;;;;;22.20;99.90;;;;;;4589895;19;19931;-29
2022/08/29 04:50:35;;;;;;;;;;;22.30;99.90;;;;;;4586090;19;20448;-27
2022/08/29 04:52:07;;;;;;;;;;;22.40;99.90;;;;;;4586199;19;19990;-26
2022/08/29 04:53:38;;;;;;;;;;;22.30;99.90;;;;;;4585850;19;19918;-26
2022/08/29 04:55:10;;;;;;;;;;;22.30;99.90;;;;;;4586964;19;19922;-31
2022/08/29 04:56:41;;;;;;;;;;;22.20;99.90;;;;;;4585654;19;19953;-25
2022/08/29 04:58:13;;;;;;;;;;;22.20;99.90;;;;;;4586053;19;19926;-26
2022/08/29 04:59:46;;;;;;;;;;;22.20;99.90;;;;;;4587308;19;19918;-26
2022/08/29 05:01:20;;;;;;;;;;;22.30;99.90;;;;;;4588346;19;19919;-26
2022/08/29 05:02:51;;;;;;;;;;;22.20;99.90;;;;;;4586878;19;20333;-26
2022/08/29 05:04:22;;;;;;;;;;;22.10;99.90;;;;;;4588825;19;19915;-25
2022/08/29 05:05:57;;;;;;;;;;;21.90;99.90;;;;;;4587929;19;20010;-26
2022/08/29 05:07:28;;;;;;;;;;;21.70;99.90;;;;;;4588815;19;19919;-24
2022/08/29 05:08:59;;;;;;;;;;;21.60;99.90;;;;;;4588605;19;19915;-27
2022/08/29 05:10:31;;;;;;;;;;;21.50;99.90;;;;;;4588457;19;19933;-27
2022/08/29 05:12:03;;;;;;;;;;;21.50;99.90;;;;;;4589512;19;19925;-23
2022/08/29 05:13:34;;;;;;;;;;;21.40;99.90;;;;;;4589512;19;19915;-24
2022/08/29 05:15:06;;;;;;;;;;;21.40;99.90;;;;;;4590042;19;19914;-24
2022/08/29 05:16:37;;;;;;;;;;;21.40;99.90;;;;;;4588551;19;19919;-29
2022/08/29 05:18:09;;;;;;;;;;;21.30;99.90;;;;;;4588551;19;19927;-25
2022/08/29 05:19:42;;;;;;;;;;;21.40;99.90;;;;;;4587899;19;19933;-25
2022/08/29 05:21:22;;;;;;;;;;;21.30;99.90;;;;;;4589144;19;20336;-25
2022/08/29 05:22:53;;;;;;;;;;;21.30;99.90;;;;;;4587583;19;19984;-29
2022/08/29 05:24:24;;;;;;;;;;;21.30;99.90;;;;;;4588025;19;19922;-27
2022/08/29 05:25:57;;;;;;;;;;;21.30;99.90;;;;;;4588022;19;20257;-24
2022/08/29 05:27:28;;;;;;;;;;;21.30;99.90;;;;;;4587861;19;19919;-24
2022/08/29 05:28:59;;;;;;;;;;;21.20;99.90;;;;;;4590609;19;19930;-22
2022/08/29 05:30:30;;;;;;;;;;;21.20;99.90;;;;;;4591862;19;19918;-24
2022/08/29 05:32:01;;;;;;;;;;;21.20;99.90;;;;;;4593439;19;20365;-25
2022/08/29 05:33:33;;;;;;;;;;;21.30;99.90;;;;;;4593590;19;19915;-28
2022/08/29 05:35:04;;;;;;;;;;;21.20;99.90;;;;;;4593525;19;19919;-24
2022/08/29 05:36:36;;;;;;;;;;;21.20;99.90;;;;;;4593301;19;19911;-23
2022/08/29 05:38:07;;;;;;;;;;;21.20;99.90;;;;;;4593124;19;19919;-24
2022/08/29 05:39:37;;;;;;;;;;;21.20;99.90;;;;;;4591488;19;19922;-26
2022/08/29 05:41:08;;;;;;;;;;;21.20;99.90;;;;;;4592378;19;19925;-29
2022/08/29 05:42:40;;;;;;;;;;;21.20;99.90;;;;;;4595276;19;20280;-30
2022/08/29 05:44:11;;;;;;;;;;;21.20;99.90;;;;;;4594044;19;19941;-23
2022/08/29 05:45:42;;;;;;;;;;;21.20;99.90;;;;;;4593851;19;19918;-23
2022/08/29 05:47:14;;;;;;;;;;;21.20;99.90;;;;;;4593895;19;19947;-25
2022/08/29 05:48:45;;;;;;;;;;;21.20;99.90;;;;;;4592239;19;19933;-24
2022/08/29 05:50:16;;;;;;;;;;;21.20;99.90;;;;;;4594027;19;20251;-25
2022/08/29 05:51:50;;;;;;;;;;;21.20;99.90;;;;;;4593761;19;19938;-24
2022/08/29 05:53:21;;;;;;;;;;;21.40;99.90;;;;;;4592351;19;19924;-26
2022/08/29 05:54:52;;;;;;;;;;;21.70;99.90;;;;;;4593153;19;19926;-27
2022/08/29 05:56:24;;;;;;;;;;;21.90;99.90;;;;;;4592914;19;20316;-25
2022/08/29 05:57:55;;;;;;;;;;;22.00;99.90;;;;;;4590750;19;19915;-29
2022/08/29 05:59:26;;;;;;;;;;;22.10;99.90;;;;;;4590562;19;20268;-28
2022/08/29 06:00:57;;;;;;;;;;;22.20;99.90;;;;;;4594286;19;19926;-27
2022/08/29 06:02:28;;;;;;;;;;;22.20;99.90;;;;;;4594234;19;19931;-23
2022/08/29 06:03:59;;;;;;;;;;;22.00;99.90;;;;;;4593774;19;19918;-26
2022/08/29 06:05:30;;;;;;;;;;;21.80;99.90;;;;;;4593775;19;19923;-25
2022/08/29 06:07:02;;;;;;;;;;;21.70;99.90;;;;;;4593504;19;20266;-26
2022/08/29 06:08:33;;;;;;;;;;;21.60;99.90;;;;;;4592677;19;19918;-26
2022/08/29 06:10:07;;;;;;;;;;;21.50;99.90;;;;;;4592308;19;19922;-25
2022/08/29 06:11:38;;;;;;;;;;;21.70;99.90;;;;;;4591047;19;19921;-25
2022/08/29 06:13:09;;;;;;;;;;;21.90;99.90;;;;;;4591735;19;19926;-25
2022/08/29 06:14:40;;;;;;;;;;;22.00;99.90;;;;;;4591997;19;19911;-26
2022/08/29 06:16:12;;;;;;;;;;;22.10;99.90;;;;;;4594373;19;19978;-25
2022/08/29 06:17:43;;;;;;;;;;;22.20;99.90;;;;;;4593985;19;20369;-29
2022/08/29 06:19:14;;;;;;;;;;;22.20;99.90;;;;;;4592939;19;19925;-28
2022/08/29 06:20:47;;;;;;;;;;;22.20;99.90;;;;;;4593094;19;20368;-25
2022/08/29 06:22:21;;;;;;;;;;;22.30;99.90;;;;;;4592495;19;19915;-26
2022/08/29 06:23:52;;;;;;;;;;;22.30;99.90;;;;;;4592599;19;19925;-25
2022/08/29 06:25:23;;;;;;;;;;;22.30;99.90;;;;;;4592320;19;19923;-27
2022/08/29 06:26:54;;;;;;;;;;;22.30;99.90;;;;;;4590508;19;19941;-28
2022/08/29 06:28:26;;;;;;;;;;;22.30;99.90;;;;;;4591030;19;19919;-28
2022/08/29 06:29:56;;;;;;;;;;;22.30;99.90;;;;;;4590765;19;20321;-27
2022/08/29 06:31:28;;;;;;;;;;;22.30;99.90;;;;;;4593443;19;20288;-24
2022/08/29 06:33:00;;;;;;;;;;;22.30;99.90;;;;;;4592097;19;19927;-24
2022/08/29 06:34:31;;;;;;;;;;;22.20;99.90;;;;;;4592567;19;19921;-26
2022/08/29 06:36:03;;;;;;;;;;;22.30;99.90;;;;;;4592493;19;19911;-22
2022/08/29 06:37:34;;;;;;;;;;;22.20;99.90;;;;;;4591011;19;19932;-26
2022/08/29 06:39:06;;;;;;;;;;;22.00;99.90;;;;;;4590977;19;19923;-23
2022/08/29 06:40:37;;;;;;;;;;;21.90;99.90;;;;;;4589679;19;19914;-26
2022/08/29 06:42:08;;;;;;;;;;;21.80;99.90;;;;;;4590897;19;19936;-23
2022/08/29 06:43:40;;;;;;;;;;;21.70;99.90;;;;;;4593718;19;20260;-26
2022/08/29 06:45:10;;;;;;;;;;;21.70;99.90;;;;;;4593677;19;19919;-24
2022/08/29 06:46:42;;;;;;;;;;;21.90;99.90;;;;;;4593276;19;19910;-24
2022/08/29 06:48:13;;;;;;;;;;;22.10;99.90;;;;;;4592729;19;19949;-29
2022/08/29 06:49:45;;;;;;;;;;;22.30;99.90;;;;;;4590701;19;20313;-24
2022/08/29 06:51:16;;;;;;;;;;;22.40;99.90;;;;;;4592394;19;19925;-29
2022/08/29 06:52:46;;;;;;;;;;;22.50;99.90;;;;;;4592807;19;19990;-28
2022/08/29 06:54:18;;;;;;;;;;;22.50;99.90;;;;;;4590985;19;19926;-26
2022/08/29 06:55:50;;;;;;;;;;;22.60;99.90;;;;;;4592559;19;19918;-28
2022/08/29 06:57:21;;;;;;;;;;;22.70;99.90;;;;;;4591950;19;20242;-25
2022/08/29 06:58:52;;;;;;;;;;;22.70;99.90;;;;;;4592696;19;19919;-25
2022/08/29 07:00:23;;;;;;;;;;;22.60;99.90;;;;;;4590995;19;19922;-25
2022/08/29 07:01:54;;;;;;;;;;;22.30;99.90;;;;;;4592439;19;19919;-24
2022/08/29 07:03:25;;;;;;;;;;;22.10;99.90;;;;;;4591051;19;19918;-26
2022/08/29 07:04:56;;;;;;;;;;;22.00;99.90;;;;;;4592313;19;19914;-28
2022/08/29 07:06:32;;;;;;;;;;;21.90;99.90;;;;;;4592332;19;19938;-25
2022/08/29 07:08:03;;;;;;;;;;;21.80;99.90;;;;;;4591204;19;20344;-30
2022/08/29 07:09:34;;;;;;;;;;;21.70;99.90;;;;;;4592179;19;19922;-25
2022/08/29 07:11:05;;;;;;;;;;;21.70;99.90;;;;;;4592132;19;19919;-29
2022/08/29 07:12:36;;;;;;;;;;;21.70;99.90;;;;;;4591164;19;19915;-25
2022/08/29 07:14:07;;;;;;;;;;;21.80;99.90;;;;;;4591545;19;20319;-26
2022/08/29 07:15:38;;;;;;;;;;;22.00;99.90;;;;;;4590887;19;19931;-28
2022/08/29 07:17:09;;;;;;;;;;;22.10;99.90;;;;;;4590541;19;19914;-26
2022/08/29 07:18:40;;;;;;;;;;;22.20;99.90;;;;;;4589478;19;19922;-26
2022/08/29 07:20:12;;;;;;;;;;;22.20;99.90;;;;;;4588550;19;19935;-30
2022/08/29 07:21:43;;;;;;;;;;;22.20;99.90;;;;;;4589710;19;19931;-27
2022/08/29 07:23:14;;;;;;;;;;;22.30;99.90;;;;;;4589962;19;20324;-27
2022/08/29 07:24:45;;;;;;;;;;;22.40;99.90;;;;;;4589576;19;19919;-30
2022/08/29 07:26:17;;;;;;;;;;;22.40;99.90;;;;;;4590059;19;19922;-25
2022/08/29 07:27:48;;;;;;;;;;;22.10;99.90;;;;;;4589736;19;19982;-29
2022/08/29 07:29:19;;;;;;;;;;;21.90;99.90;;;;;;4589925;19;19914;-26
2022/08/29 07:30:50;;;;;;;;;;;21.80;99.90;;;;;;4589924;19;19939;-27
2022/08/29 07:32:22;;;;;;;;;;;21.70;99.90;;;;;;4589821;19;19922;-24
2022/08/29 07:33:52;;;;;;;;;;;21.60;99.90;;;;;;4589401;19;19915;-25
2022/08/29 07:35:24;;;;;;;;;;;21.60;99.90;;;;;;4589574;19;19911;-25
2022/08/29 07:36:55;;;;;;;;;;;21.50;99.90;;;;;;4589542;19;19915;-25
2022/08/29 07:38:29;;;;;;;;;;;21.50;99.90;;;;;;4589860;19;19974;-25
2022/08/29 07:40:02;;;;;;;;;;;21.40;99.90;;;;;;4588582;19;19926;-25
2022/08/29 07:41:36;;;;;;;;;;;21.40;99.90;;;;;;4589480;19;19911;-24
2022/08/29 07:43:09;;;;;;;;;;;21.50;99.90;;;;;;4589223;19;19971;-25
2022/08/29 07:44:42;;;;;;;;;;;21.50;99.90;;;;;;4589342;19;19927;-26
2022/08/29 07:46:15;;;;;;;;;;;21.50;99.90;;;;;;4589144;19;20435;-25
2022/08/29 07:47:48;;;;;;;;;;;21.40;99.90;;;;;;4589321;19;19919;-26
2022/08/29 07:49:22;;;;;;;;;;;21.40;99.90;;;;;;4589805;19;20585;-24
2022/08/29 07:50:54;;;;;;;;;;;21.40;99.90;;;;;;4589601;19;19926;-24
2022/08/29 07:52:25;;;;;;;;;;;21.30;99.90;;;;;;4590382;19;19915;-25
2022/08/29 07:53:57;;;;;;;;;;;21.30;99.90;;;;;;4589465;19;19926;-25
2022/08/29 07:55:29;;;;;;;;;;;21.30;99.90;;;;;;4591111;19;19915;-27
2022/08/29 07:57:04;;;;;;;;;;;21.30;99.90;;;;;;4591581;19;19919;-25
2022/08/29 07:58:35;;;;;;;;;;;21.30;99.90;;;;;;4591159;19;19921;-25
2022/08/29 08:00:09;;;;;;;;;;;21.30;99.90;;;;;;4590680;19;19922;-26
2022/08/29 08:01:41;;;;;;;;;;;21.30;99.90;;;;;;4591467;19;19918;-24
2022/08/29 08:03:14;;;;;;;;;;;21.30;99.90;;;;;;4590990;19;19922;-24
2022/08/29 08:04:46;;;;;;;;;;;21.40;99.90;;;;;;4590952;19;19937;-26
2022/08/29 08:06:24;;;;;;;;;;;21.40;99.90;;;;;;4591123;19;20253;-24
2022/08/29 08:07:56;;;;;;;;;;;21.30;99.90;;;;;;4591174;19;19915;-24
2022/08/29 08:09:28;;;;;;;;;;;21.30;99.90;;;;;;4590971;19;20262;-26
2022/08/29 08:11:00;;;;;;;;;;;21.30;99.90;;;;;;4590738;19;20332;-23
2022/08/29 08:12:32;;;;;;;;;;;21.30;99.90;;;;;;4589323;19;19937;-25
2022/08/29 08:14:04;;;;;;;;;;;21.30;99.90;;;;;;4589962;19;19925;-29
2022/08/29 08:15:37;;;;;;;;;;;21.30;99.90;;;;;;4590407;19;19927;-24
2022/08/29 08:17:10;;;;;;;;;;;21.30;99.90;;;;;;4589564;19;19914;-25
2022/08/29 08:18:42;;;;;;;;;;;21.20;99.90;;;;;;4590323;19;20329;-24
2022/08/29 08:20:14;;;;;;;;;;;21.20;99.90;;;;;;4588472;19;19929;-26
2022/08/29 08:21:45;;;;;;;;;;;21.30;99.90;;;;;;4589270;19;20362;-25
2022/08/29 08:23:17;;;;;;;;;;;21.20;99.90;;;;;;4589418;19;19914;-29
2022/08/29 08:24:48;;;;;;;;;;;21.20;99.90;;;;;;4589502;19;19918;-28
2022/08/29 08:26:19;;;;;;;;;;;21.20;99.90;;;;;;4590557;19;20328;-25
2022/08/29 08:27:51;;;;;;;;;;;21.20;99.90;;;;;;4589411;19;19922;-27
2022/08/29 08:29:22;;;;;;;;;;;21.20;99.90;;;;;;4590251;19;20276;-25
2022/08/29 08:30:53;;;;;;;;;;;21.20;99.90;;;;;;4589538;19;19929;-25
2022/08/29 08:32:24;;;;;;;;;;;21.20;99.90;;;;;;4590056;19;19982;-28
2022/08/29 08:33:56;;;;;;;;;;;21.20;99.90;;;;;;4590643;19;20296;-29
2022/08/29 08:35:28;;;;;;;;;;;21.20;99.90;;;;;;4589147;19;19917;-25
2022/08/29 08:37:00;;;;;;;;;;;21.20;99.90;;;;;;4590488;19;19910;-30
2022/08/29 08:38:32;;;;;;;;;;;21.20;99.90;;;;;;4590317;19;19918;-27
2022/08/29 08:40:04;;;;;;;;;;;21.20;99.90;;;;;;4586999;19;20363;-25
2022/08/29 08:41:35;;;;;;;;;;;21.20;99.90;;;;;;4588766;19;19922;-27
2022/08/29 08:43:06;;;;;;;;;;;21.20;99.90;;;;;;4590269;19;19937;-25
2022/08/29 08:44:55;;;;;;;;;;;21.20;99.90;;;;;;4589147;19;20369;-26
2022/08/29 08:46:31;;;;;;;;;;;21.20;99.90;;;;;;4589943;19;19911;-27
2022/08/29 08:48:04;;;;;;;;;;;21.20;99.90;;;;;;4590268;19;19949;-25
2022/08/29 08:49:41;;;;;;;;;;;21.20;99.90;;;;;;4590334;19;19994;-26
2022/08/29 08:51:19;;;;;;;;;;;21.20;99.90;;;;;;4590323;19;19919;-26
2022/08/29 08:52:52;;;;;;;;;;;21.20;99.90;;;;;;4589065;19;19930;-29
2022/08/29 08:54:24;;;;;;;;;;;21.20;99.90;;;;;;4587969;19;19938;-24
2022/08/29 08:55:55;;;;;;;;;;;21.30;99.90;;;;;;4589920;19;20333;-25
2022/08/29 08:57:29;;;;;;;;;;;21.20;99.90;;;;;;4589056;19;19942;-24
2022/08/29 08:59:12;;;;;;;;;;;21.20;99.90;;;;;;4589697;19;20246;-24
2022/08/29 09:00:57;;;;;;;;;;;21.20;99.90;;;;;;4589914;19;20325;-26